Roaring Gap, North Carolina
Current Conditions -  °F | °C
As of 2:55 PM on Tuesday 21 Oct 2014 (Local Time) from KUKF Reporting Station
Overcast Overcast  
Wind Chill: 68°   Ceiling: 7500
Heat Index: 68°   Visibility: 10mi
Dew Point: 43°   Wind: 5mph
Humidity: 40%   Direction: 260°W
Pressure: 29.95"   Gusts: NA
Location:  36.4°N, 80.98°W
Report Text: KUKF 211855Z AUTO 26004KT 10SM SCT065 OVC075 20/06 A2995 RMK AO2
Loading
Personal Weather Stations






























Interactive Weather Map New forecast layout! Learn more

10-Day Weather Forecast

Advertisements
Track Severe Weather on mobile